createdAt,value
2023-03-16T00:00:16.392Z,5.00
2023-03-16T00:01:07.035Z,5.17
2023-03-16T00:01:55.506Z,4.98
2023-03-16T00:02:36.451Z,5.17
2023-03-16T00:03:21.699Z,4.97
2023-03-16T00:04:01.386Z,4.98
2023-03-16T00:04:41.575Z,4.92
2023-03-16T00:05:22.394Z,4.87
2023-03-16T00:06:03.520Z,4.86
2023-03-16T00:06:43.393Z,4.65
2023-03-16T00:07:24.711Z,4.60
2023-03-16T00:08:04.464Z,4.81
2023-03-16T00:08:44.549Z,4.80
2023-03-16T00:09:24.420Z,4.79
2023-03-16T00:10:05.562Z,4.75
2023-03-16T00:10:45.399Z,4.72
2023-03-16T00:11:25.609Z,4.83
2023-03-16T00:12:09.390Z,4.70
2023-03-16T00:12:50.488Z,4.70
2023-03-16T00:13:31.407Z,4.71
2023-03-16T00:14:12.483Z,4.56
2023-03-16T00:14:55.393Z,4.72
2023-03-16T00:15:35.503Z,4.49
2023-03-16T00:16:15.449Z,4.57
2023-03-16T00:16:55.492Z,4.72
2023-03-16T00:17:35.372Z,4.55
2023-03-16T00:18:16.526Z,4.66
2023-03-16T00:18:56.408Z,4.62
2023-03-16T00:19:36.475Z,4.72
2023-03-16T00:20:18.368Z,4.78
2023-03-16T00:21:02.108Z,4.62
2023-03-16T00:21:42.390Z,4.84
2023-03-16T00:22:23.490Z,4.72
2023-03-16T00:23:03.398Z,4.66
2023-03-16T00:23:43.520Z,4.49
2023-03-16T00:24:25.406Z,4.60
2023-03-16T00:25:05.519Z,4.63
2023-03-16T00:25:45.362Z,4.66
2023-03-16T00:26:28.465Z,4.45
2023-03-16T00:27:08.378Z,4.59
2023-03-16T00:27:48.516Z,4.46
2023-03-16T00:28:30.385Z,4.58
2023-03-16T00:29:11.836Z,4.64
2023-03-16T00:29:54.387Z,4.73
2023-03-16T00:30:35.459Z,4.62
2023-03-16T00:31:21.383Z,4.83
2023-03-16T00:32:03.404Z,4.71
2023-03-16T00:32:44.402Z,4.59
2023-03-16T00:33:25.449Z,4.65
2023-03-16T00:34:05.396Z,4.63
2023-03-16T00:34:46.471Z,4.61
2023-03-16T00:35:28.393Z,4.57
2023-03-16T00:36:11.364Z,4.53
2023-03-16T00:36:51.382Z,4.44
2023-03-16T00:37:33.465Z,4.44
2023-03-16T00:38:13.347Z,4.31
2023-03-16T00:38:54.451Z,4.33
2023-03-16T00:39:34.347Z,4.50
2023-03-16T00:40:16.784Z,4.26
2023-03-16T00:40:57.384Z,4.42
2023-03-16T00:41:38.134Z,4.44
2023-03-16T00:42:21.354Z,4.35
2023-03-16T00:43:02.461Z,4.32
2023-03-16T00:43:47.358Z,4.20
2023-03-16T00:44:27.443Z,4.50
2023-03-16T00:45:08.355Z,4.50
2023-03-16T00:45:48.506Z,4.36
2023-03-16T00:46:33.365Z,4.51
2023-03-16T00:47:15.597Z,4.42
2023-03-16T00:47:55.344Z,4.36
2023-03-16T00:48:35.532Z,4.33
2023-03-16T00:49:16.376Z,4.48
2023-03-16T00:49:56.453Z,4.26
2023-03-16T00:50:36.323Z,4.44
2023-03-16T00:51:22.928Z,4.49
2023-03-16T00:52:03.400Z,4.30
2023-03-16T00:52:43.447Z,4.36
2023-03-16T00:53:23.330Z,4.44
2023-03-16T00:54:05.008Z,4.58
2023-03-16T00:54:45.347Z,4.38
2023-03-16T00:55:28.499Z,4.51
2023-03-16T00:56:10.359Z,4.52
2023-03-16T00:56:51.254Z,4.46
2023-03-16T00:57:34.376Z,4.37
2023-03-16T00:58:15.484Z,4.41
2023-03-16T00:58:55.331Z,4.57
2023-03-16T00:59:37.894Z,4.52
2023-03-16T01:00:22.338Z,4.49
2023-03-16T01:01:02.593Z,4.47
2023-03-16T01:01:43.345Z,4.48
2023-03-16T01:02:25.420Z,4.47
2023-03-16T01:03:05.426Z,4.42
2023-03-16T01:03:46.470Z,4.58
2023-03-16T01:04:26.321Z,4.44
2023-03-16T01:05:06.419Z,4.47
2023-03-16T01:05:48.358Z,4.30
2023-03-16T01:06:28.445Z,4.48
2023-03-16T01:07:11.329Z,4.41
2023-03-16T01:07:52.442Z,4.28
2023-03-16T01:08:35.369Z,4.37
2023-03-16T01:09:15.409Z,4.33
2023-03-16T01:09:56.322Z,4.35
2023-03-16T01:10:36.417Z,4.41
2023-03-16T01:11:22.338Z,4.54
2023-03-16T01:12:03.436Z,4.51
2023-03-16T01:12:43.317Z,4.52
2023-03-16T01:13:23.523Z,4.64
2023-03-16T01:14:03.374Z,4.63
2023-03-16T01:14:45.946Z,4.58
2023-03-16T01:15:26.339Z,4.61
2023-03-16T01:16:07.785Z,4.63
2023-03-16T01:16:52.375Z,4.40
2023-03-16T01:17:35.081Z,4.49
2023-03-16T01:18:15.305Z,4.66
2023-03-16T01:18:56.895Z,4.57
2023-03-16T01:19:41.343Z,4.59
2023-03-16T01:20:22.409Z,4.60
2023-03-16T01:21:02.314Z,4.68
2023-03-16T01:21:42.684Z,4.67
2023-03-16T01:22:24.319Z,4.66
2023-03-16T01:23:04.568Z,4.61
2023-03-16T01:23:44.380Z,4.63
2023-03-16T01:24:25.401Z,4.57
2023-03-16T01:25:05.347Z,4.53
2023-03-16T01:25:52.874Z,4.69
2023-03-16T01:26:34.344Z,4.56
2023-03-16T01:27:15.459Z,4.76
2023-03-16T01:27:55.318Z,4.66
2023-03-16T01:28:38.983Z,4.57
2023-03-16T01:29:19.296Z,4.69
2023-03-16T01:30:00.115Z,4.73
2023-03-16T01:30:42.380Z,4.66
2023-03-16T01:31:23.458Z,4.56
2023-03-16T01:32:04.351Z,4.62
2023-03-16T01:32:45.505Z,4.55
2023-03-16T01:33:25.312Z,4.59
2023-03-16T01:34:06.401Z,4.67
2023-03-16T01:34:46.302Z,4.67
2023-03-16T01:35:26.439Z,4.58
2023-03-16T01:36:13.354Z,4.65
2023-03-16T01:36:55.466Z,4.44
2023-03-16T01:37:35.320Z,4.60
2023-03-16T01:38:15.547Z,4.65
2023-03-16T01:38:56.296Z,4.58
2023-03-16T01:39:37.491Z,4.44
2023-03-16T01:40:19.295Z,4.40
2023-03-16T01:41:01.387Z,4.45
2023-03-16T01:41:41.324Z,4.52
2023-03-16T01:42:22.437Z,4.69
2023-03-16T01:43:11.288Z,4.60
2023-03-16T01:43:51.925Z,4.59
2023-03-16T01:44:39.282Z,4.57
2023-03-16T01:46:06.447Z,4.64
2023-03-16T01:46:49.325Z,4.60
2023-03-16T01:47:30.428Z,4.46
2023-03-16T01:48:11.285Z,4.73
2023-03-16T01:49:06.483Z,4.74
2023-03-16T01:49:47.285Z,4.39
2023-03-16T01:50:27.599Z,4.59
2023-03-16T01:51:10.276Z,4.51
2023-03-16T01:52:11.372Z,4.61
2023-03-16T01:52:45.770Z,4.53
2023-03-16T01:53:34.437Z,4.61
2023-03-16T01:54:48.364Z,4.53
2023-03-16T01:55:36.261Z,4.51
2023-03-16T01:56:11.048Z,4.60
2023-03-16T01:57:09.274Z,4.59
2023-03-16T01:57:52.254Z,4.55
2023-03-16T01:58:32.372Z,4.19
2023-03-16T01:59:18.279Z,4.50
2023-03-16T02:00:10.435Z,4.50
2023-03-16T02:00:52.272Z,4.29
2023-03-16T02:01:36.428Z,4.52
2023-03-16T02:02:22.284Z,4.53
2023-03-16T02:03:06.366Z,4.37
2023-03-16T02:03:48.251Z,4.49
2023-03-16T02:05:07.075Z,4.49
2023-03-16T02:05:59.267Z,4.62
2023-03-16T02:06:40.358Z,4.45
2023-03-16T02:07:23.307Z,4.48
2023-03-16T02:08:03.351Z,4.46
2023-03-16T02:08:45.280Z,4.46
2023-03-16T02:09:26.428Z,4.49
2023-03-16T02:10:12.255Z,4.53
2023-03-16T02:10:54.698Z,4.44
2023-03-16T02:11:35.285Z,4.51
2023-03-16T02:12:18.372Z,4.38
2023-03-16T02:13:00.300Z,4.49
2023-03-16T02:13:43.464Z,4.48
2023-03-16T02:14:23.252Z,4.44
2023-03-16T02:15:04.606Z,4.41
2023-03-16T02:15:46.295Z,4.52
2023-03-16T02:16:28.362Z,4.57
2023-03-16T02:17:08.236Z,4.55
2023-03-16T02:17:51.347Z,4.52
2023-03-16T02:18:31.299Z,4.54
2023-03-16T02:19:19.358Z,4.54
2023-03-16T02:20:29.743Z,4.69
2023-03-16T02:21:48.397Z,4.70
2023-03-16T02:22:31.239Z,4.61
2023-03-16T02:23:18.751Z,4.75
2023-03-16T02:24:00.262Z,4.61
2023-03-16T02:24:42.392Z,4.67
2023-03-16T02:25:25.275Z,4.67
2023-03-16T02:26:39.382Z,4.48
2023-03-16T02:27:30.261Z,4.64
2023-03-16T02:28:31.349Z,4.70
2023-03-16T02:30:15.262Z,4.63
2023-03-16T02:30:55.367Z,4.56
2023-03-16T02:31:36.246Z,4.59
2023-03-16T02:32:17.356Z,4.48
2023-03-16T02:32:59.321Z,4.31
2023-03-16T02:33:40.709Z,4.21
2023-03-16T02:34:24.221Z,4.34
2023-03-16T02:35:06.336Z,4.31
2023-03-16T02:35:47.290Z,4.18
2023-03-16T02:36:28.317Z,4.18
2023-03-16T02:37:09.218Z,4.06
2023-03-16T02:37:49.341Z,4.16
2023-03-16T02:38:29.231Z,3.75
2023-03-16T02:39:09.323Z,3.85
2023-03-16T02:39:50.226Z,4.10
2023-03-16T02:40:36.331Z,4.03
2023-03-16T02:41:23.260Z,4.02
2023-03-16T02:42:03.822Z,4.09
2023-03-16T02:42:44.228Z,3.89
2023-03-16T02:43:33.325Z,3.90
2023-03-16T02:44:30.224Z,3.99
2023-03-16T02:45:11.379Z,3.93
2023-03-16T02:46:02.281Z,3.89
2023-03-16T02:46:43.313Z,3.69
2023-03-16T02:47:25.453Z,3.75
2023-03-16T02:48:03.734Z,3.67
2023-03-16T02:48:56.214Z,3.88
2023-03-16T02:49:37.352Z,3.81
2023-03-16T02:50:12.586Z,3.87
2023-03-16T02:50:55.240Z,3.44
2023-03-16T02:51:29.521Z,3.65
2023-03-16T02:52:14.279Z,3.70
2023-03-16T02:52:54.320Z,3.57
2023-03-16T02:53:34.233Z,3.69
2023-03-16T02:54:14.319Z,3.55
2023-03-16T02:54:54.210Z,3.84
2023-03-16T02:55:34.300Z,3.69
2023-03-16T02:56:16.206Z,3.54
2023-03-16T02:56:57.318Z,3.59
2023-03-16T02:57:38.266Z,3.69
2023-03-16T02:58:20.329Z,3.53
2023-03-16T02:59:00.237Z,3.39
2023-03-16T02:59:41.580Z,3.74
2023-03-16T03:00:23.229Z,3.46
2023-03-16T03:01:04.333Z,3.58
2023-03-16T03:01:44.212Z,3.69
2023-03-16T03:02:53.273Z,3.36
2023-03-16T03:03:47.244Z,3.40
2023-03-16T03:04:41.221Z,3.39
2023-03-16T03:05:35.221Z,3.58
2023-03-16T03:06:29.222Z,3.44
2023-03-16T03:07:23.192Z,3.37
2023-03-16T03:08:11.212Z,3.40
2023-03-16T03:08:45.278Z,3.49
2023-03-16T03:09:32.175Z,3.51
2023-03-16T03:10:06.275Z,3.32
2023-03-16T03:10:53.208Z,3.35
2023-03-16T03:11:27.761Z,3.39
2023-03-16T03:12:19.225Z,3.53
2023-03-16T03:12:53.307Z,3.46
2023-03-16T03:13:34.220Z,3.44
2023-03-16T03:14:16.723Z,3.20
2023-03-16T03:14:57.198Z,3.24
2023-03-16T03:15:37.316Z,3.41
2023-03-16T03:16:18.243Z,3.24
2023-03-16T03:17:12.196Z,3.51
2023-03-16T03:18:06.221Z,3.53
2023-03-16T03:18:54.255Z,3.23
2023-03-16T03:19:28.313Z,3.49
2023-03-16T03:20:23.169Z,3.19
2023-03-16T03:20:57.302Z,3.38
2023-03-16T03:21:45.184Z,3.50
2023-03-16T03:22:19.275Z,3.20
2023-03-16T03:23:06.180Z,3.49
2023-03-16T03:23:40.308Z,3.54
2023-03-16T03:24:20.220Z,3.26
2023-03-16T03:25:02.751Z,3.40
2023-03-16T03:25:43.182Z,3.42
2023-03-16T03:26:24.835Z,3.44
2023-03-16T03:27:12.183Z,3.54
2023-03-16T03:27:57.059Z,3.53
2023-03-16T03:28:38.186Z,3.58
2023-03-16T03:29:18.469Z,3.66
2023-03-16T03:29:59.217Z,3.46
2023-03-16T03:30:39.325Z,3.50
2023-03-16T03:31:27.212Z,3.53
2023-03-16T03:32:09.303Z,3.34
2023-03-16T03:32:50.291Z,3.35
2023-03-16T03:33:33.667Z,3.34
2023-03-16T03:34:14.175Z,3.24
2023-03-16T03:34:54.265Z,3.38
2023-03-16T03:35:34.236Z,3.41
2023-03-16T03:36:14.293Z,3.37
2023-03-16T03:36:54.174Z,3.43
2023-03-16T03:37:34.302Z,3.21
2023-03-16T03:38:15.181Z,3.09
2023-03-16T03:38:55.333Z,3.26
2023-03-16T03:39:36.162Z,3.43
2023-03-16T03:40:20.293Z,3.14
2023-03-16T03:41:05.196Z,3.18
2023-03-16T03:41:46.251Z,3.21
2023-03-16T03:42:26.155Z,2.96
2023-03-16T03:43:06.446Z,2.86
2023-03-16T03:43:46.155Z,2.92
2023-03-16T03:44:28.346Z,3.13
2023-03-16T03:45:09.172Z,2.95
2023-03-16T03:45:49.360Z,3.16
2023-03-16T03:46:30.272Z,3.09
2023-03-16T03:47:11.334Z,3.28
2023-03-16T03:47:52.147Z,3.38
2023-03-16T03:48:32.316Z,3.20
2023-03-16T03:49:12.171Z,3.03
2023-03-16T03:49:52.268Z,3.01
2023-03-16T03:50:32.196Z,3.28
2023-03-16T03:51:12.377Z,3.30
2023-03-16T03:51:53.190Z,3.26
2023-03-16T03:52:34.286Z,3.12
2023-03-16T03:53:15.167Z,3.17
2023-03-16T03:53:56.393Z,3.14
2023-03-16T03:54:36.138Z,2.94
2023-03-16T03:55:17.261Z,3.06
2023-03-16T03:55:58.156Z,3.04
2023-03-16T03:56:38.395Z,3.02
2023-03-16T03:57:21.762Z,2.93
2023-03-16T03:58:02.276Z,2.90
2023-03-16T03:58:43.151Z,3.17
2023-03-16T03:59:23.280Z,3.25
2023-03-16T04:00:03.153Z,3.00
2023-03-16T04:00:43.248Z,3.15
2023-03-16T04:01:24.136Z,3.10
2023-03-16T04:02:04.380Z,3.24
2023-03-16T04:02:45.252Z,3.20
2023-03-16T04:03:25.249Z,3.19
2023-03-16T04:04:05.140Z,3.04
2023-03-16T04:04:46.241Z,3.16
2023-03-16T04:05:27.144Z,3.07
2023-03-16T04:06:08.175Z,3.09
2023-03-16T04:06:49.148Z,3.03
2023-03-16T04:07:29.336Z,3.29
2023-03-16T04:08:10.151Z,3.29
2023-03-16T04:08:51.294Z,3.14
2023-03-16T04:09:31.168Z,3.22
2023-03-16T04:10:14.519Z,3.07
2023-03-16T04:10:55.152Z,3.31
2023-03-16T04:11:35.242Z,3.37
2023-03-16T04:12:17.138Z,3.30
2023-03-16T04:12:58.269Z,3.30
2023-03-16T04:13:39.133Z,3.25
2023-03-16T04:14:19.228Z,3.10
2023-03-16T04:14:59.117Z,3.09
2023-03-16T04:15:40.592Z,3.18
2023-03-16T04:16:24.167Z,3.22
2023-03-16T04:17:04.941Z,3.39
2023-03-16T04:17:45.113Z,3.18
2023-03-16T04:18:25.227Z,3.11
2023-03-16T04:19:05.159Z,3.19
2023-03-16T04:19:46.210Z,3.35
2023-03-16T04:20:27.342Z,3.30
2023-03-16T04:21:07.231Z,3.36
2023-03-16T04:21:48.156Z,3.46
2023-03-16T04:22:30.308Z,3.35
2023-03-16T04:23:11.125Z,3.25
2023-03-16T04:23:54.422Z,3.52
2023-03-16T04:24:34.162Z,3.41
2023-03-16T04:25:16.219Z,3.25
2023-03-16T04:25:57.112Z,3.26
2023-03-16T04:26:39.855Z,3.44
2023-03-16T04:27:21.115Z,3.48
2023-03-16T04:28:02.120Z,3.32
2023-03-16T04:28:42.115Z,3.33
2023-03-16T04:29:25.477Z,3.52
2023-03-16T04:30:06.144Z,3.52
2023-03-16T04:30:46.235Z,3.44
2023-03-16T04:31:27.118Z,3.43
2023-03-16T04:32:07.231Z,3.35
2023-03-16T04:32:48.140Z,3.27
2023-03-16T04:33:29.192Z,3.41
2023-03-16T04:34:10.099Z,3.50
2023-03-16T04:34:50.210Z,3.47
2023-03-16T04:35:31.213Z,3.41
2023-03-16T04:36:13.253Z,3.33
2023-03-16T04:36:53.115Z,3.59
2023-03-16T04:37:34.486Z,3.31
2023-03-16T04:38:15.130Z,3.27
2023-03-16T04:38:55.221Z,3.43
2023-03-16T04:39:36.167Z,3.13
2023-03-16T04:40:17.401Z,3.19
2023-03-16T04:40:58.132Z,3.24
2023-03-16T04:41:39.232Z,3.23
2023-03-16T04:42:20.121Z,3.36
2023-03-16T04:43:00.197Z,3.43
2023-03-16T04:43:43.111Z,3.26
2023-03-16T04:44:25.833Z,3.29
2023-03-16T04:45:06.097Z,3.51
2023-03-16T04:45:46.198Z,3.38
2023-03-16T04:46:27.295Z,3.18
2023-03-16T04:47:08.192Z,3.13
2023-03-16T04:47:48.131Z,3.04
2023-03-16T04:48:28.648Z,3.26
2023-03-16T04:49:10.105Z,3.23
2023-03-16T04:49:50.223Z,3.19
2023-03-16T04:50:31.181Z,2.98
2023-03-16T04:51:13.198Z,2.95
2023-03-16T04:51:53.116Z,3.03
2023-03-16T04:52:33.221Z,3.13
2023-03-16T04:53:14.063Z,3.32
2023-03-16T04:53:54.191Z,3.12
2023-03-16T04:54:35.097Z,3.42
2023-03-16T04:55:16.244Z,3.37
2023-03-16T04:55:57.113Z,3.23
2023-03-16T04:56:37.241Z,3.37
2023-03-16T04:57:17.140Z,3.43
2023-03-16T04:57:57.176Z,3.52
2023-03-16T04:58:38.073Z,3.25
2023-03-16T04:59:18.165Z,3.29
2023-03-16T04:59:59.079Z,3.47
2023-03-16T05:00:39.226Z,3.39
2023-03-16T05:01:20.103Z,3.51
2023-03-16T05:02:00.174Z,3.74
2023-03-16T05:02:41.329Z,3.70
2023-03-16T05:03:22.226Z,3.47
2023-03-16T05:04:03.107Z,3.61
2023-03-16T05:04:43.172Z,3.56
2023-03-16T05:05:24.120Z,3.59
2023-03-16T05:06:05.200Z,3.55
2023-03-16T05:06:53.065Z,3.73
2023-03-16T05:07:27.180Z,3.65
2023-03-16T05:08:08.128Z,3.67
2023-03-16T05:08:48.768Z,3.64
2023-03-16T05:09:29.074Z,3.66
2023-03-16T05:10:27.613Z,3.42
2023-03-16T05:11:09.064Z,3.60
2023-03-16T05:11:49.239Z,3.42
2023-03-16T05:12:30.071Z,3.57
2023-03-16T05:13:18.106Z,3.62
2023-03-16T05:14:12.084Z,3.49
2023-03-16T05:15:06.080Z,3.71
2023-03-16T05:16:02.204Z,3.40
2023-03-16T05:16:56.079Z,3.51
2023-03-16T05:17:51.079Z,3.59
2023-03-16T05:18:40.077Z,3.47
2023-03-16T05:19:14.279Z,3.64
2023-03-16T05:20:01.048Z,3.57
2023-03-16T05:20:35.886Z,3.64
2023-03-16T05:21:23.068Z,3.75
2023-03-16T05:21:57.173Z,3.82
2023-03-16T05:22:47.052Z,3.81
2023-03-16T05:23:21.159Z,3.82
2023-03-16T05:24:01.082Z,3.92
2023-03-16T05:24:41.149Z,3.92
2023-03-16T05:25:24.048Z,3.79
2023-03-16T05:26:04.208Z,3.89
2023-03-16T05:26:45.039Z,3.71
2023-03-16T05:27:25.144Z,3.79
2023-03-16T05:28:06.047Z,3.96
2023-03-16T05:28:46.165Z,4.00
2023-03-16T05:29:27.100Z,4.00
2023-03-16T05:30:07.151Z,4.03
2023-03-16T05:30:49.088Z,3.97
2023-03-16T05:31:32.577Z,3.86
2023-03-16T05:32:14.028Z,3.97
2023-03-16T05:32:56.695Z,3.92
2023-03-16T05:33:38.061Z,3.88
2023-03-16T05:34:18.127Z,3.95
2023-03-16T05:35:00.078Z,3.92
2023-03-16T05:35:40.197Z,3.80
2023-03-16T05:36:21.040Z,3.75
2023-03-16T05:37:01.136Z,3.73
2023-03-16T05:37:44.036Z,3.58
2023-03-16T05:38:24.158Z,3.77
2023-03-16T05:39:06.033Z,3.66
2023-03-16T05:39:46.140Z,3.75
2023-03-16T05:40:29.445Z,3.73
2023-03-16T05:41:10.353Z,3.79
2023-03-16T05:41:51.034Z,3.60
2023-03-16T05:42:32.168Z,3.56
2023-03-16T05:43:13.044Z,3.69
2023-03-16T05:43:54.165Z,3.77
2023-03-16T05:44:35.047Z,3.61
2023-03-16T05:45:16.132Z,3.69
2023-03-16T05:45:57.059Z,3.77
2023-03-16T05:46:38.221Z,3.72
2023-03-16T05:47:19.065Z,3.81
2023-03-16T05:47:59.200Z,3.89
2023-03-16T05:48:39.044Z,3.90
2023-03-16T05:49:19.129Z,3.77
2023-03-16T05:50:00.021Z,3.85
2023-03-16T05:50:40.166Z,3.82
2023-03-16T05:51:21.039Z,3.83
2023-03-16T05:52:01.130Z,3.92
2023-03-16T05:52:42.036Z,3.97
2023-03-16T05:53:28.993Z,3.93
2023-03-16T05:54:10.033Z,3.96
2023-03-16T05:54:50.115Z,3.95
2023-03-16T05:55:31.008Z,3.86
2023-03-16T05:56:11.164Z,3.98
2023-03-16T05:56:52.063Z,4.03
2023-03-16T05:57:32.143Z,4.05
2023-03-16T05:58:12.003Z,3.98
2023-03-16T05:58:52.155Z,3.87
2023-03-16T05:59:33.030Z,3.81
2023-03-16T06:00:29.435Z,3.87
2023-03-16T06:01:24.034Z,3.70
2023-03-16T06:02:12.035Z,3.74
2023-03-16T06:02:49.295Z,3.96
2023-03-16T06:03:36.051Z,3.84
2023-03-16T06:04:10.137Z,3.85
2023-03-16T06:04:57.013Z,4.03
2023-03-16T06:05:32.050Z,3.90
2023-03-16T06:06:20.047Z,3.97
2023-03-16T06:06:54.213Z,4.10
2023-03-16T06:07:35.081Z,4.02
2023-03-16T06:08:15.423Z,3.97
2023-03-16T06:08:56.038Z,3.94
2023-03-16T06:09:36.123Z,3.93
2023-03-16T06:10:18.013Z,3.89
2023-03-16T06:10:58.132Z,3.98
2023-03-16T06:11:38.995Z,3.83
2023-03-16T06:12:19.106Z,3.86
2023-03-16T06:13:00.082Z,3.97
2023-03-16T06:13:40.108Z,3.88
2023-03-16T06:14:20.001Z,3.78
2023-03-16T06:15:00.130Z,3.93
2023-03-16T06:15:40.996Z,4.03
2023-03-16T06:16:21.157Z,3.93
2023-03-16T06:17:02.013Z,3.93
2023-03-16T06:17:44.187Z,3.84
2023-03-16T06:18:24.021Z,3.90
2023-03-16T06:19:04.101Z,3.91
2023-03-16T06:19:45.005Z,3.91
2023-03-16T06:20:25.110Z,3.84
2023-03-16T06:21:06.012Z,3.86
2023-03-16T06:21:46.133Z,3.69
2023-03-16T06:22:26.022Z,3.80
2023-03-16T06:23:06.123Z,3.57
2023-03-16T06:23:46.995Z,3.90
2023-03-16T06:24:28.147Z,3.91
2023-03-16T06:25:08.994Z,3.95
2023-03-16T06:25:49.123Z,3.92
2023-03-16T06:26:30.013Z,3.83
2023-03-16T06:27:11.160Z,3.81
2023-03-16T06:27:52.014Z,3.94
2023-03-16T06:28:32.077Z,3.98
2023-03-16T06:29:12.990Z,3.97
2023-03-16T06:29:54.114Z,3.95
2023-03-16T06:30:34.975Z,3.95
2023-03-16T06:31:15.313Z,3.82
2023-03-16T06:31:58.098Z,3.85
2023-03-16T06:32:38.169Z,3.89
2023-03-16T06:33:17.992Z,3.92
2023-03-16T06:33:58.076Z,3.98
2023-03-16T06:34:38.373Z,3.89
2023-03-16T06:35:20.080Z,3.93
2023-03-16T06:36:01.001Z,4.04
2023-03-16T06:36:41.085Z,3.91
2023-03-16T06:37:21.973Z,4.03
2023-03-16T06:38:02.082Z,4.02
2023-03-16T06:38:41.974Z,4.19
2023-03-16T06:39:22.064Z,4.16
2023-03-16T06:40:03.005Z,4.22
2023-03-16T06:40:43.056Z,4.33
2023-03-16T06:41:23.977Z,4.31
2023-03-16T06:42:05.407Z,4.27
2023-03-16T06:42:47.393Z,4.22
2023-03-16T06:43:28.069Z,4.18
2023-03-16T06:44:08.965Z,4.31
2023-03-16T06:44:49.151Z,4.35
2023-03-16T06:45:30.059Z,4.35
2023-03-16T06:46:10.188Z,4.26
2023-03-16T06:46:50.965Z,4.32
2023-03-16T06:47:32.430Z,4.31
2023-03-16T06:48:13.974Z,4.37
2023-03-16T06:48:47.756Z,4.42
2023-03-16T06:49:34.949Z,4.47
2023-03-16T06:50:12.605Z,4.41
2023-03-16T06:50:53.971Z,4.46
2023-03-16T06:51:28.085Z,4.41
2023-03-16T06:52:03.356Z,4.20
2023-03-16T06:52:43.023Z,4.29
2023-03-16T06:53:17.067Z,4.32
2023-03-16T06:53:50.818Z,4.40
2023-03-16T06:54:32.016Z,4.24
2023-03-16T06:55:06.143Z,4.32
2023-03-16T06:55:41.504Z,4.28
2023-03-16T06:56:21.976Z,4.36
2023-03-16T06:56:56.031Z,4.53
2023-03-16T06:57:29.708Z,4.47
2023-03-16T06:58:09.964Z,4.49
2023-03-16T06:58:44.063Z,4.28
2023-03-16T06:59:19.039Z,4.44
2023-03-16T06:59:58.966Z,4.34
2023-03-16T07:00:34.095Z,4.56
2023-03-16T07:01:07.803Z,4.42
2023-03-16T07:01:48.977Z,4.25
2023-03-16T07:02:41.106Z,4.31
2023-03-16T07:03:18.122Z,4.31
2023-03-16T07:03:58.976Z,4.46
2023-03-16T07:04:34.025Z,4.36
2023-03-16T07:05:10.986Z,4.40
2023-03-16T07:05:53.946Z,4.22
2023-03-16T07:06:28.244Z,4.16
2023-03-16T07:07:27.966Z,4.31
2023-03-16T07:08:10.145Z,4.20
2023-03-16T07:08:50.934Z,4.26
2023-03-16T07:09:31.662Z,4.19
2023-03-16T07:10:12.953Z,4.25
2023-03-16T07:10:54.618Z,3.96
2023-03-16T07:11:34.974Z,4.28
2023-03-16T07:12:17.042Z,4.40
2023-03-16T07:12:57.023Z,4.44
2023-03-16T07:13:38.051Z,4.53
2023-03-16T07:14:17.999Z,4.23
2023-03-16T07:14:59.122Z,4.25
2023-03-16T07:15:39.921Z,4.27
2023-03-16T07:16:21.953Z,4.17
2023-03-16T07:17:02.946Z,4.15
2023-03-16T07:17:43.132Z,4.06
2023-03-16T07:18:22.983Z,4.06
2023-03-16T07:19:04.060Z,4.21
2023-03-16T07:19:43.928Z,4.21
2023-03-16T07:20:27.008Z,4.18
2023-03-16T07:21:07.943Z,4.02
2023-03-16T07:21:48.050Z,4.18
2023-03-16T07:22:28.905Z,4.17
2023-03-16T07:23:13.041Z,4.21
2023-03-16T07:23:52.939Z,4.18
2023-03-16T07:24:34.069Z,4.11
2023-03-16T07:25:17.940Z,4.20
2023-03-16T07:25:59.067Z,4.26
2023-03-16T07:26:41.943Z,4.23
2023-03-16T07:27:23.631Z,4.14
2023-03-16T07:28:04.922Z,4.25
2023-03-16T07:28:46.005Z,4.34
2023-03-16T07:29:28.930Z,4.30
2023-03-16T07:30:12.061Z,4.11
2023-03-16T07:31:03.486Z,4.19
2023-03-16T07:31:45.061Z,4.16
2023-03-16T07:32:26.962Z,4.22
2023-03-16T07:33:07.086Z,4.49
2023-03-16T07:33:47.912Z,4.08
2023-03-16T07:34:35.944Z,4.37
2023-03-16T07:35:11.582Z,4.36
2023-03-16T07:35:58.960Z,4.34
2023-03-16T07:36:38.778Z,4.28
2023-03-16T07:37:26.935Z,4.20
2023-03-16T07:38:01.470Z,4.37
2023-03-16T07:38:49.896Z,4.35
2023-03-16T07:39:23.849Z,4.28
2023-03-16T07:40:03.959Z,4.32
2023-03-16T07:40:39.258Z,4.39
2023-03-16T07:41:14.085Z,4.38
2023-03-16T07:41:54.899Z,4.27
2023-03-16T07:42:29.099Z,4.21
2023-03-16T07:43:02.736Z,4.25
2023-03-16T07:43:43.936Z,4.08
2023-03-16T07:44:18.074Z,4.28
2023-03-16T07:44:52.731Z,4.16
2023-03-16T07:45:33.931Z,4.16
2023-03-16T07:46:09.008Z,4.08
2023-03-16T07:46:55.894Z,4.07
2023-03-16T07:47:31.505Z,4.09
2023-03-16T07:48:18.885Z,4.46
2023-03-16T07:48:55.968Z,4.48
2023-03-16T07:49:42.905Z,4.31
2023-03-16T07:50:19.261Z,4.38
2023-03-16T07:51:00.963Z,4.36
2023-03-16T07:51:44.053Z,4.36
2023-03-16T07:52:24.912Z,4.34
2023-03-16T07:53:06.063Z,4.43
2023-03-16T07:53:46.983Z,4.41
2023-03-16T07:54:26.988Z,4.42
2023-03-16T07:55:08.886Z,4.46
2023-03-16T07:55:50.038Z,4.59
2023-03-16T07:56:42.344Z,4.29
2023-03-16T07:57:27.981Z,4.37
2023-03-16T07:58:12.886Z,4.58
2023-03-16T07:58:52.987Z,4.44
2023-03-16T07:59:33.888Z,4.44
2023-03-16T08:00:17.163Z,4.44
2023-03-16T08:00:57.868Z,4.56
2023-03-16T08:01:44.909Z,4.59
2023-03-16T08:02:38.947Z,4.71
2023-03-16T08:03:32.947Z,4.76
2023-03-16T08:04:26.880Z,4.81
2023-03-16T08:05:22.880Z,4.78
2023-03-16T08:06:16.874Z,4.73
2023-03-16T08:07:06.898Z,4.78
2023-03-16T08:07:41.250Z,4.88
2023-03-16T08:08:28.853Z,4.99
2023-03-16T08:09:02.961Z,4.98
2023-03-16T08:09:49.918Z,4.92
2023-03-16T08:10:25.005Z,5.04
2023-03-16T08:11:12.881Z,5.00
2023-03-16T08:11:46.998Z,5.21
2023-03-16T08:12:27.914Z,5.23
2023-03-16T08:13:09.974Z,5.33
2023-03-16T08:13:50.873Z,5.25
2023-03-16T08:14:34.301Z,5.28
2023-03-16T08:15:14.851Z,5.22
2023-03-16T08:15:58.904Z,5.20
2023-03-16T08:16:39.880Z,5.27
2023-03-16T08:17:21.775Z,5.43
2023-03-16T08:18:02.938Z,5.41
2023-03-16T08:18:44.037Z,5.41
2023-03-16T08:19:23.874Z,5.53
2023-03-16T08:20:08.138Z,5.45
2023-03-16T08:20:48.878Z,5.67
2023-03-16T08:21:30.261Z,5.53
2023-03-16T08:22:11.848Z,5.57
2023-03-16T08:22:52.109Z,5.65
2023-03-16T08:23:32.924Z,5.60
2023-03-16T08:24:13.991Z,5.68
2023-03-16T08:24:55.862Z,5.75
2023-03-16T08:25:36.957Z,5.79
2023-03-16T08:26:17.848Z,5.81
2023-03-16T08:26:58.943Z,5.74
2023-03-16T08:27:39.845Z,5.70
2023-03-16T08:28:25.385Z,5.71
2023-03-16T08:29:09.917Z,5.84
2023-03-16T08:29:50.954Z,5.84
2023-03-16T08:30:32.204Z,5.76
2023-03-16T08:31:15.065Z,6.03
2023-03-16T08:31:55.847Z,6.15
2023-03-16T08:32:36.047Z,6.07
2023-03-16T08:33:16.844Z,6.04
2023-03-16T08:33:57.923Z,6.06
2023-03-16T08:34:38.868Z,6.12
2023-03-16T08:35:21.976Z,6.17
2023-03-16T08:36:02.881Z,6.11
2023-03-16T08:36:43.978Z,6.16
2023-03-16T08:37:24.871Z,6.13
2023-03-16T08:38:06.119Z,6.08
2023-03-16T08:38:59.939Z,6.17
2023-03-16T08:39:57.874Z,5.98
2023-03-16T08:40:54.840Z,6.30
2023-03-16T08:41:49.854Z,6.18
2023-03-16T08:42:44.857Z,6.21
2023-03-16T08:43:39.855Z,6.17
2023-03-16T08:44:33.915Z,6.22
2023-03-16T08:45:20.906Z,6.25
2023-03-16T08:45:55.897Z,6.23
2023-03-16T08:46:43.989Z,6.31
2023-03-16T08:47:25.762Z,6.43
2023-03-16T08:48:05.829Z,6.26
2023-03-16T08:48:48.493Z,6.34
2023-03-16T08:49:30.839Z,6.22
2023-03-16T08:50:15.986Z,6.40
2023-03-16T08:50:57.865Z,6.34
2023-03-16T08:51:39.948Z,6.48
2023-03-16T08:52:19.824Z,6.36
2023-03-16T08:53:00.837Z,6.60
2023-03-16T08:53:41.806Z,6.61
2023-03-16T08:54:22.327Z,6.65
2023-03-16T08:55:04.804Z,6.67
2023-03-16T08:55:45.105Z,6.58
2023-03-16T08:56:25.859Z,6.56
2023-03-16T08:57:06.052Z,6.36
2023-03-16T08:57:45.823Z,6.32
2023-03-16T08:58:27.632Z,6.53
2023-03-16T08:59:19.930Z,6.52
2023-03-16T09:00:12.894Z,6.47
2023-03-16T09:00:52.821Z,6.56
2023-03-16T09:01:40.904Z,6.53
2023-03-16T09:02:47.884Z,6.71
2023-03-16T09:03:35.817Z,6.58
2023-03-16T09:04:09.635Z,6.54
2023-03-16T09:04:57.823Z,6.61
2023-03-16T09:05:32.682Z,6.61
2023-03-16T09:06:23.811Z,6.42
2023-03-16T09:07:09.266Z,6.45
2023-03-16T09:07:55.899Z,6.56
2023-03-16T09:08:37.825Z,6.54
2023-03-16T09:09:19.588Z,6.48
2023-03-16T09:09:59.799Z,6.52
2023-03-16T09:10:39.942Z,6.57
2023-03-16T09:11:23.799Z,6.67
2023-03-16T09:12:12.829Z,6.54
2023-03-16T09:12:47.227Z,6.64
2023-03-16T09:13:34.834Z,6.61
2023-03-16T09:14:08.694Z,6.62
2023-03-16T09:14:56.803Z,6.52
2023-03-16T09:15:31.394Z,6.62
2023-03-16T09:16:23.847Z,6.64
2023-03-16T09:16:57.577Z,6.71
2023-03-16T09:17:38.821Z,6.43
2023-03-16T09:18:13.638Z,6.57
2023-03-16T09:18:47.908Z,6.71
2023-03-16T09:19:37.600Z,6.73
2023-03-16T09:20:34.790Z,6.60
2023-03-16T09:21:13.106Z,6.52
2023-03-16T09:21:53.810Z,6.48
2023-03-16T09:22:28.486Z,6.61